Time;durP1;ratioP1;P1;durP2;ratioP2;P2;SDS_P1;SDS_P2;PMS_P1;PMS_P2;Temp;Humidity;BMP_temperature;BMP_pressure;BME280_temperature;BME280_humidity;BME280_pressure;Samples;Min_cycle;Max_cycle;Signal;HPM_P1;HPM_P2
2022/05/14 00:01:14;;;;;;;4.10;3.10;;;9.60;99.90;9.00;100103;;;;559964;252;24178;-79
2022/05/14 00:03:42;;;;;;;5.27;2.90;;;9.70;99.90;9.10;100100;;;;560055;252;24125;-79
2022/05/14 00:06:13;;;;;;;6.37;2.83;;;9.80;99.90;9.20;100097;;;;559949;252;24167;-80
2022/05/14 00:08:41;;;;;;;6.47;3.10;;;9.90;99.90;9.30;100098;;;;568255;252;24149;-80
2022/05/14 00:13:55;;;;;;;5.23;2.70;;;10.10;99.90;9.50;100095;;;;568541;252;24218;-78
2022/05/14 00:16:23;;;;;;;5.80;3.07;;;10.20;99.90;9.70;100098;;;;568036;252;24123;-80
2022/05/14 00:18:51;;;;;;;7.93;3.07;;;10.50;99.90;9.80;100102;;;;568048;252;24127;-75
2022/05/14 00:21:20;;;;;;;9.17;3.13;;;10.60;99.90;9.90;100102;;;;559580;252;24157;-77
2022/05/14 00:23:48;;;;;;;5.37;2.60;;;10.60;99.90;10.00;100099;;;;559398;252;24155;-75
2022/05/14 00:26:16;;;;;;;11.53;3.00;;;10.70;99.90;10.10;100102;;;;559741;252;24127;-79
2022/05/14 00:28:48;;;;;;;3.63;2.33;;;10.80;99.90;10.10;100103;;;;568058;252;24159;-78
2022/05/14 00:31:12;;;;;;;5.13;2.73;;;10.80;99.90;10.20;100103;;;;559798;252;24128;-77
2022/05/14 00:33:40;;;;;;;8.60;3.33;;;10.90;99.90;10.30;100093;;;;556641;252;24119;-75
2022/05/14 00:36:08;;;;;;;8.33;3.00;;;11.00;99.90;10.30;100105;;;;557261;252;24130;-76
2022/05/14 00:38:36;;;;;;;8.57;2.30;;;11.00;99.90;10.30;100090;;;;556948;252;24113;-75
2022/05/14 00:41:03;;;;;;;4.43;3.10;;;11.10;99.90;10.40;100097;;;;556765;252;24125;-77
2022/05/14 00:43:35;;;;;;;8.40;2.73;;;11.10;99.90;10.40;100101;;;;559586;252;24124;-77
2022/05/14 00:46:09;;;;;;;3.37;2.47;;;11.10;99.90;10.40;100098;;;;560218;252;24213;-75
2022/05/14 00:48:37;;;;;;;10.00;3.03;;;11.10;99.90;10.40;100087;;;;555468;252;24169;-79
2022/05/14 00:51:05;;;;;;;2.70;2.40;;;11.20;99.90;10.50;100090;;;;559975;252;24118;-79
2022/05/14 00:53:39;;;;;;;5.10;2.60;;;11.20;99.90;10.50;100093;;;;560253;252;24150;-76
2022/05/14 00:56:07;;;;;;;7.53;2.73;;;11.20;99.90;10.50;100091;;;;560291;251;24129;-76
2022/05/14 00:59:02;;;;;;;3.93;2.57;;;11.20;99.90;10.50;100090;;;;560141;252;24159;-76
2022/05/14 01:01:30;;;;;;;6.13;2.20;;;11.20;99.90;10.50;100085;;;;561515;256;24201;-75
2022/05/14 01:03:58;;;;;;;7.00;2.43;;;11.20;99.90;10.50;100079;;;;578319;244;24120;-75
2022/05/14 01:06:29;;;;;;;6.33;3.63;;;11.20;99.90;10.50;100076;;;;582605;244;24061;-77
2022/05/14 01:08:54;;;;;;;6.23;2.83;;;11.20;99.90;10.50;100074;;;;579476;244;24098;-81
2022/05/14 01:11:21;;;;;;;13.93;2.87;;;11.20;99.90;10.50;100081;;;;579755;244;24062;-81
2022/05/14 01:13:49;;;;;;;6.80;2.40;;;11.20;99.90;10.50;100080;;;;579757;244;24085;-79
2022/05/14 01:16:17;;;;;;;3.40;2.60;;;11.20;99.90;10.50;100078;;;;576814;244;24108;-80
2022/05/14 01:18:45;;;;;;;10.57;2.70;;;11.20;99.90;10.60;100087;;;;579751;244;24063;-80
2022/05/14 01:21:53;;;;;;;10.37;2.83;;;11.20;99.90;10.60;100079;;;;576702;244;24054;-76
2022/05/14 01:27:07;;;;;;;6.57;2.37;;;11.20;99.90;10.60;100080;;;;579447;244;24098;-78
2022/05/14 01:29:36;;;;;;;5.90;2.47;;;11.30;99.90;10.70;100073;;;;579534;244;24056;-75
2022/05/14 01:32:03;;;;;;;5.77;2.07;;;11.30;99.90;10.70;100073;;;;579484;244;24127;-74
2022/05/14 01:34:31;;;;;;;6.17;2.37;;;11.40;99.90;10.80;100075;;;;579163;244;24055;-76
2022/05/14 01:37:03;;;;;;;4.17;2.00;;;11.40;99.90;10.80;100079;;;;579081;244;24120;-75
2022/05/14 01:39:27;;;;;;;6.87;2.30;;;11.50;99.90;10.80;100076;;;;578968;244;24058;-76
2022/05/14 01:41:55;;;;;;;6.27;2.50;;;11.50;99.90;10.90;100079;;;;582016;244;24043;-76
2022/05/14 01:44:23;;;;;;;8.17;2.37;;;11.60;99.90;10.90;100080;;;;578962;244;24080;-76
2022/05/14 01:46:52;;;;;;;9.70;2.63;;;11.60;99.90;10.90;100076;;;;579211;244;24051;-76
2022/05/14 01:49:20;;;;;;;6.27;2.70;;;11.60;99.90;10.90;100079;;;;579071;244;24094;-75
2022/05/14 01:51:51;;;;;;;9.73;2.97;;;11.60;99.90;11.00;100086;;;;579516;244;24165;-75
2022/05/14 01:54:16;;;;;;;5.10;2.67;;;11.70;99.90;11.00;100080;;;;579298;244;24071;-76
2022/05/14 01:56:44;;;;;;;5.13;2.53;;;11.70;99.90;11.00;100085;;;;576564;243;24064;-78
2022/05/14 01:59:12;;;;;;;5.33;2.20;;;11.70;99.90;11.00;100087;;;;577392;243;24077;-78
2022/05/14 02:01:40;;;;;;;6.87;2.33;;;11.70;99.90;11.00;100092;;;;577094;244;24113;-75
2022/05/14 02:04:11;;;;;;;3.43;2.00;;;11.70;99.90;11.10;100080;;;;577143;244;24036;-76
2022/05/14 02:06:42;;;;;;;8.27;2.00;;;11.70;99.90;11.10;100088;;;;579707;244;24067;-76
2022/05/14 02:09:10;;;;;;;6.03;1.97;;;11.80;99.90;11.10;100077;;;;579656;244;24055;-76
2022/05/14 02:11:35;;;;;;;8.70;1.70;;;11.80;99.90;11.20;100077;;;;579307;244;24121;-77
2022/05/14 02:14:04;;;;;;;11.50;2.78;;;11.80;99.90;11.20;100069;;;;574531;244;35113;-75
2022/05/14 02:16:32;;;;;;;5.87;2.30;;;11.80;99.90;11.20;100069;;;;576403;244;24053;-77
2022/05/14 02:19:00;;;;;;;5.90;2.07;;;11.90;99.90;11.20;100067;;;;588319;243;24094;-75
2022/05/14 02:21:29;;;;;;;7.83;1.93;;;12.00;99.90;11.20;100060;;;;576441;244;24142;-77
2022/05/14 02:23:57;;;;;;;4.43;1.97;;;11.90;99.90;11.30;100052;;;;576349;244;24067;-74
2022/05/14 02:26:24;;;;;;;4.97;2.10;;;12.00;99.90;11.30;100048;;;;579391;244;24055;-76
2022/05/14 02:28:52;;;;;;;7.00;1.93;;;12.00;99.90;11.30;100039;;;;579338;244;24071;-77
2022/05/14 02:31:21;;;;;;;6.07;2.37;;;12.00;99.90;11.30;100035;;;;576443;244;24120;-77
2022/05/14 02:33:48;;;;;;;6.00;1.70;;;12.00;99.90;11.30;100036;;;;576462;244;24105;-78
2022/05/14 02:36:20;;;;;;;6.67;2.80;;;12.00;99.90;11.30;100033;;;;579087;244;24069;-79
2022/05/14 02:38:44;;;;;;;6.40;2.50;;;12.00;99.90;11.20;100032;;;;579122;244;24117;-78
2022/05/14 02:41:13;;;;;;;6.03;2.20;;;11.80;99.90;11.20;100033;;;;576049;244;24084;-79
2022/05/14 02:43:41;;;;;;;2.93;1.87;;;11.80;99.90;11.10;100027;;;;578999;243;24137;-79
2022/05/14 02:46:09;;;;;;;3.90;1.87;;;11.80;99.90;11.10;100024;;;;579302;244;24132;-81
2022/05/14 02:48:37;;;;;;;8.67;2.43;;;11.70;99.90;11.00;100025;;;;579418;244;24063;-79
2022/05/14 02:51:05;;;;;;;4.80;2.57;;;11.70;99.90;11.00;100033;;;;576218;244;24079;-79
2022/05/14 02:53:36;;;;;;;6.60;1.77;;;11.70;99.90;11.00;100029;;;;579371;244;24109;-78
2022/05/14 02:56:01;;;;;;;4.63;2.47;;;11.60;99.90;10.90;100033;;;;579381;244;24099;-79
2022/05/14 03:01:15;;;;;;;3.90;2.83;;;11.50;99.90;10.70;100039;;;;587969;244;24100;-79
2022/05/14 03:03:43;;;;;;;3.93;2.03;;;11.30;99.90;10.60;100046;;;;588151;243;24064;-80
2022/05/14 03:06:13;;;;;;;8.00;2.33;;;11.20;99.90;10.60;100041;;;;579491;244;24052;-80
2022/05/14 03:08:40;;;;;;;9.50;2.67;;;11.30;99.90;10.50;100034;;;;577174;243;24106;-76
2022/05/14 03:11:11;;;;;;;8.70;2.80;;;11.20;99.90;10.50;100029;;;;577425;243;24057;-75
2022/05/14 03:13:36;;;;;;;4.07;2.07;;;11.10;99.90;10.40;100030;;;;576965;244;24117;-76
2022/05/14 03:16:07;;;;;;;8.17;3.70;;;11.10;99.90;10.30;100034;;;;572070;244;35058;-75
2022/05/14 03:18:32;;;;;;;7.87;2.27;;;11.00;99.90;10.30;100035;;;;579919;244;24116;-76
2022/05/14 03:21:00;;;;;;;9.40;2.20;;;10.90;99.90;10.20;100035;;;;576793;244;24156;-78
2022/05/14 03:23:28;;;;;;;5.53;2.50;;;10.90;99.90;10.10;100023;;;;579614;244;24043;-80
2022/05/14 03:25:55;;;;;;;4.97;2.53;;;10.80;99.90;10.10;100021;;;;576686;244;24085;-80
2022/05/14 03:28:23;;;;;;;3.27;2.37;;;10.80;99.90;10.10;100023;;;;579355;244;24047;-80
2022/05/14 03:30:51;;;;;;;6.90;2.70;;;10.80;99.90;10.20;100030;;;;579513;244;24098;-78
2022/05/14 03:33:19;;;;;;;7.03;2.43;;;10.80;99.90;10.40;100033;;;;576464;244;24131;-80
2022/05/14 03:35:47;;;;;;;2.93;2.23;;;11.00;99.90;10.50;100025;;;;576842;244;24171;-81
2022/05/14 03:38:15;;;;;;;6.50;2.47;;;11.20;99.90;10.70;100026;;;;576498;244;24061;-79
2022/05/14 03:40:43;;;;;;;7.83;2.50;;;11.30;99.90;10.90;100029;;;;576322;244;24046;-79
2022/05/14 03:43:11;;;;;;;2.47;1.90;;;11.50;99.90;11.00;100038;;;;576502;244;24270;-78
2022/05/14 03:45:39;;;;;;;7.03;2.50;;;11.70;99.90;11.10;100029;;;;576135;244;24086;-76
2022/05/14 03:48:07;;;;;;;3.03;2.30;;;11.80;99.90;11.10;100032;;;;576109;244;24068;-81
2022/05/14 03:50:34;;;;;;;5.97;2.23;;;11.80;99.90;11.10;100033;;;;576119;244;24078;-76
2022/05/14 03:53:03;;;;;;;4.10;2.27;;;11.90;99.90;11.10;100028;;;;579014;244;24089;-79
2022/05/14 03:55:31;;;;;;;10.00;2.80;;;11.80;99.90;11.20;100024;;;;576162;244;24073;-81
2022/05/14 03:57:59;;;;;;;5.63;2.30;;;11.90;99.90;11.20;100025;;;;576516;244;24136;-80
2022/05/14 04:00:30;;;;;;;5.60;2.53;;;11.90;99.90;11.20;100021;;;;579512;244;24115;-79
2022/05/14 04:02:55;;;;;;;4.13;2.13;;;11.80;99.90;11.20;100029;;;;579188;244;24112;-81
2022/05/14 04:05:26;;;;;;;6.17;2.50;;;11.80;99.90;11.20;100031;;;;576393;244;24120;-79
2022/05/14 04:07:52;;;;;;;4.93;2.47;;;11.90;99.90;11.20;100024;;;;579070;244;24191;-80
2022/05/14 04:10:20;;;;;;;8.17;2.77;;;11.80;99.90;11.20;100020;;;;575985;244;24079;-79
2022/05/14 04:12:48;;;;;;;5.67;2.37;;;11.90;99.90;11.20;100023;;;;588235;243;24067;-80
2022/05/14 04:15:16;;;;;;;4.77;2.80;;;11.90;99.90;11.20;100021;;;;576111;244;24115;-79
2022/05/14 04:17:44;;;;;;;2.30;2.10;;;11.90;99.90;11.20;100023;;;;579653;243;24061;-78
2022/05/14 04:20:12;;;;;;;5.57;2.37;;;11.90;99.90;11.30;100026;;;;576988;243;24104;-79
2022/05/14 04:22:40;;;;;;;7.37;2.47;;;11.90;99.90;11.30;100015;;;;580496;243;25141;-80
2022/05/14 04:25:08;;;;;;;3.10;2.00;;;12.00;99.90;11.30;100022;;;;577206;244;24085;-79
2022/05/14 04:27:36;;;;;;;2.90;2.27;;;12.00;99.90;11.40;100010;;;;579997;244;24073;-79
2022/05/14 04:30:04;;;;;;;5.90;2.63;;;12.10;99.90;11.50;100013;;;;576751;244;24078;-79
2022/05/14 04:32:32;;;;;;;3.83;2.13;;;12.10;99.90;11.50;100025;;;;579632;244;24058;-79
2022/05/14 04:35:00;;;;;;;4.37;2.27;;;12.20;99.90;11.60;100022;;;;577030;244;24108;-74
2022/05/14 04:37:28;;;;;;;8.73;2.13;;;12.20;99.90;11.60;100024;;;;576613;244;24053;-78
2022/05/14 04:39:56;;;;;;;7.73;2.43;;;12.30;99.90;11.60;100022;;;;576182;244;24043;-75
2022/05/14 04:42:24;;;;;;;5.67;2.67;;;12.30;99.90;11.60;100019;;;;576422;244;25124;-77
2022/05/14 04:44:55;;;;;;;6.60;2.80;;;12.30;99.90;11.60;100017;;;;571245;244;35142;-74
2022/05/14 04:47:20;;;;;;;5.20;2.10;;;12.30;99.90;11.60;100020;;;;576224;244;24091;-75
2022/05/14 04:49:51;;;;;;;5.60;2.40;;;12.30;99.90;11.60;100020;;;;576351;244;24136;-74
2022/05/14 04:52:19;;;;;;;6.53;2.20;;;12.40;99.90;11.70;100032;;;;579074;244;24066;-78
2022/05/14 04:54:45;;;;;;;8.53;3.43;;;12.40;99.90;11.70;100024;;;;588044;244;24086;-73
2022/05/14 04:57:16;;;;;;;8.43;2.23;;;12.30;99.90;11.70;100025;;;;579011;244;24095;-74
2022/05/14 04:59:41;;;;;;;5.67;2.73;;;12.30;99.90;11.70;100019;;;;579478;244;24078;-79
2022/05/14 05:04:55;;;;;;;3.20;2.00;;;12.40;99.90;11.70;100026;;;;588134;243;24052;-76
2022/05/14 05:07:23;;;;;;;10.43;2.17;;;12.40;99.90;11.70;100031;;;;576048;244;24044;-75
2022/05/14 05:09:54;;;;;;;7.23;2.43;;;12.40;99.90;11.70;100020;;;;576248;244;24060;-75
2022/05/14 05:12:19;;;;;;;7.27;2.80;;;12.40;99.90;11.80;100038;;;;579130;244;24090;-75
2022/05/14 05:14:47;;;;;;;6.97;2.13;;;12.50;99.90;11.80;100024;;;;576042;244;24109;-75
2022/05/14 05:17:18;;;;;;;4.70;2.43;;;12.50;99.90;12.40;100037;;;;576165;244;24102;-76
2022/05/14 05:19:43;;;;;;;9.07;2.40;;;12.90;99.90;14.40;100029;;;;579060;244;24085;-76
2022/05/14 05:22:12;;;;;;;5.80;2.27;;;16.90;99.90;16.90;100031;;;;582048;244;24111;-79
2022/05/14 05:24:40;;;;;;;5.33;2.17;;;19.40;99.90;19.30;100025;;;;576086;244;25133;-76
2022/05/14 05:27:08;;;;;;;4.43;2.40;;;19.30;99.90;21.50;100020;;;;576200;244;24147;-75
2022/05/14 05:29:36;;;;;;;5.33;2.30;;;21.70;99.90;22.60;100024;;;;576079;244;24072;-75
2022/05/14 05:32:04;;;;;;;8.23;2.83;;;23.10;95.00;23.80;100030;;;;579899;243;23086;-78
2022/05/14 05:34:32;;;;;;;4.77;2.47;;;24.30;87.70;24.10;100026;;;;580365;243;24050;-80
2022/05/14 05:37:00;;;;;;;9.20;2.63;;;24.90;79.20;23.50;100015;;;;576882;244;24063;-75
2022/05/14 05:39:28;;;;;;;8.90;2.50;;;24.60;75.50;23.50;100022;;;;577039;244;24062;-75
2022/05/14 05:41:58;;;;;;;5.73;2.50;;;24.40;74.30;25.00;100035;;;;576622;244;24115;-75
2022/05/14 05:44:24;;;;;;;6.47;2.47;;;25.50;71.40;26.70;100027;;;;577056;244;23076;-76
2022/05/14 05:46:52;;;;;;;7.27;2.37;;;27.00;66.40;27.70;100037;;;;576701;244;23149;-76
2022/05/14 05:49:19;;;;;;;9.53;2.77;;;28.30;61.00;26.70;100035;;;;579582;244;24087;-76
2022/05/14 05:51:47;;;;;;;6.60;2.47;;;27.90;58.30;24.90;100044;;;;582781;244;23094;-75
2022/05/14 05:57:03;;;;;;;7.37;2.60;;;24.90;61.10;21.80;100048;;;;579873;244;24036;-80
2022/05/14 05:59:32;;;;;;;6.57;2.50;;;23.30;64.60;20.70;100045;;;;588288;243;24048;-78
2022/05/14 06:01:57;;;;;;;9.23;2.80;;;22.00;68.20;19.90;100042;;;;588224;244;24068;-80
2022/05/14 06:04:26;;;;;;;8.37;2.80;;;20.30;74.60;19.30;100051;;;;579296;244;24097;-76
2022/05/14 06:06:54;;;;;;;5.13;2.80;;;20.20;74.60;18.40;100051;;;;576260;244;24099;-77
2022/05/14 06:09:26;;;;;;;9.47;2.63;;;19.40;77.10;17.80;100046;;;;576168;244;24057;-76
2022/05/14 06:11:50;;;;;;;10.10;2.67;;;18.70;80.00;17.40;100048;;;;579071;244;24074;-75
2022/05/14 06:14:18;;;;;;;9.30;3.00;;;18.20;83.00;17.20;100042;;;;579315;244;24062;-79
2022/05/14 06:16:49;;;;;;;10.17;3.07;;;17.80;85.20;16.90;100051;;;;579456;244;24097;-79
2022/05/14 06:19:14;;;;;;;13.37;2.93;;;17.50;87.10;16.70;100046;;;;579549;244;25193;-79
2022/05/14 06:21:42;;;;;;;6.93;2.50;;;17.30;88.90;16.50;100047;;;;579705;244;24066;-80
2022/05/14 06:24:10;;;;;;;10.90;2.80;;;17.00;90.20;16.20;100050;;;;576202;244;24123;-75
2022/05/14 06:26:38;;;;;;;8.37;2.40;;;16.80;91.20;16.00;100043;;;;579259;244;24054;-80
2022/05/14 06:29:08;;;;;;;8.33;2.73;;;16.60;92.30;15.80;100052;;;;579251;244;24105;-80
2022/05/14 06:31:33;;;;;;;8.30;2.63;;;16.40;93.00;15.70;100055;;;;579246;244;24089;-79
2022/05/14 06:34:02;;;;;;;4.90;2.40;;;16.20;94.90;15.60;100043;;;;576301;244;24179;-77
2022/05/14 06:36:34;;;;;;;9.03;2.43;;;16.10;96.20;15.50;100042;;;;579235;244;24063;-79
2022/05/14 06:38:59;;;;;;;7.47;2.83;;;16.00;95.80;15.50;100047;;;;579129;244;24064;-80
2022/05/14 06:41:27;;;;;;;11.93;3.33;;;16.00;97.10;15.40;100041;;;;588163;243;24066;-77
2022/05/14 06:43:54;;;;;;;6.20;2.57;;;16.00;98.50;15.20;100035;;;;577291;243;24071;-75
2022/05/14 06:46:22;;;;;;;7.50;2.70;;;15.90;99.20;15.20;100039;;;;577168;243;24059;-77
2022/05/14 06:48:50;;;;;;;5.90;2.77;;;15.80;99.70;15.10;100043;;;;580070;240;24040;-77
2022/05/14 06:51:18;;;;;;;7.60;2.43;;;15.70;99.90;15.10;100035;;;;577305;244;24056;-75
2022/05/14 06:53:49;;;;;;;10.10;3.27;;;15.70;99.90;15.10;100041;;;;579733;244;24126;-75
2022/05/14 06:56:14;;;;;;;11.13;2.37;;;15.70;99.90;15.10;100051;;;;579831;244;24069;-76
2022/05/14 06:58:45;;;;;;;8.57;3.03;;;15.70;99.90;14.90;100045;;;;579951;244;24061;-75
2022/05/14 07:01:11;;;;;;;7.40;2.90;;;15.50;99.90;14.80;100041;;;;579471;244;24058;-75
2022/05/14 07:06:38;;;;;;;8.90;3.47;;;15.10;99.90;14.50;100052;;;;580291;244;24077;-76
2022/05/14 07:09:15;;;;;;;11.13;3.07;;;15.10;99.90;14.20;100053;;;;577256;244;24080;-74
2022/05/14 07:11:43;;;;;;;9.37;3.03;;;14.80;99.90;14.00;100050;;;;589371;243;24084;-76
2022/05/14 07:14:14;;;;;;;10.90;3.23;;;14.70;99.90;14.10;100053;;;;580119;244;24084;-75
2022/05/14 07:16:42;;;;;;;7.37;2.90;;;14.70;99.90;14.40;100051;;;;580237;244;24068;-75
2022/05/14 07:19:07;;;;;;;11.13;3.63;;;14.90;99.90;14.50;100048;;;;579599;244;24106;-76
2022/05/14 07:21:38;;;;;;;6.70;3.00;;;15.10;99.90;14.60;100052;;;;588521;243;24056;-75
2022/05/14 07:24:05;;;;;;;9.87;4.23;;;15.30;99.90;14.60;100054;;;;579264;244;24090;-76
2022/05/14 07:26:30;;;;;;;11.73;3.33;;;15.20;99.90;14.50;100056;;;;579993;244;24062;-75
2022/05/14 07:29:00;;;;;;;15.13;3.53;;;15.20;99.90;14.40;100054;;;;576862;244;24062;-77
2022/05/14 07:31:29;;;;;;;7.07;3.00;;;15.10;99.90;14.40;100070;;;;576741;244;24090;-74
2022/05/14 07:33:54;;;;;;;7.03;2.67;;;15.00;99.90;14.20;100059;;;;580116;244;24059;-76
2022/05/14 07:36:22;;;;;;;12.47;3.73;;;14.90;99.90;14.00;100060;;;;576814;244;24042;-76
2022/05/14 07:38:50;;;;;;;19.47;3.90;;;14.70;99.90;13.80;100068;;;;579973;244;24058;-77
2022/05/14 07:41:18;;;;;;;7.10;3.20;;;14.50;99.90;13.60;100064;;;;582574;244;24137;-79
2022/05/14 07:43:46;;;;;;;7.87;3.63;;;14.40;99.90;13.60;100065;;;;577659;244;24104;-78
2022/05/14 07:46:14;;;;;;;7.87;3.40;;;14.30;99.90;13.50;100062;;;;580779;244;24126;-77
2022/05/14 07:48:42;;;;;;;5.77;3.27;;;14.10;99.90;13.30;100070;;;;580478;244;24098;-76
2022/05/14 07:51:10;;;;;;;13.67;3.57;;;14.00;99.90;13.20;100065;;;;581086;244;24126;-77
2022/05/14 07:53:40;;;;;;;7.57;3.57;;;13.90;99.90;13.10;100070;;;;580963;244;24072;-77
2022/05/14 07:56:09;;;;;;;6.23;3.00;;;13.80;99.90;13.00;100077;;;;582375;243;24071;-74
2022/05/14 07:58:33;;;;;;;12.23;3.33;;;13.70;99.90;13.00;100069;;;;581067;243;24077;-77
2022/05/14 08:01:01;;;;;;;10.47;3.67;;;13.70;99.90;13.00;100066;;;;577266;244;24097;-75
2022/05/14 08:03:29;;;;;;;11.47;4.47;;;13.70;99.90;13.40;100060;;;;577233;244;24054;-76
2022/05/14 08:06:03;;;;;;;8.93;2.97;;;13.90;99.90;14.50;100077;;;;580174;243;24116;-76
2022/05/14 08:08:27;;;;;;;9.03;3.40;;;14.80;99.90;16.90;100075;;;;580005;244;24096;-75
2022/05/14 08:10:58;;;;;;;4.63;2.60;;;17.00;99.90;19.20;100075;;;;579966;244;24153;-77
2022/05/14 08:13:23;;;;;;;6.60;2.97;;;19.30;99.90;21.60;100080;;;;579532;244;24098;-76
2022/05/14 08:15:51;;;;;;;8.97;3.50;;;21.70;99.90;24.50;100077;;;;579935;244;23083;-76
2022/05/14 08:18:19;;;;;;;7.83;3.33;;;24.40;99.90;27.30;100075;;;;579989;244;24123;-76
2022/05/14 08:20:51;;;;;;;8.63;3.50;;;29.70;77.20;29.40;100084;;;;580194;244;23120;-75
2022/05/14 08:26:02;;;;;;;5.25;3.05;;;32.70;56.70;31.80;100078;;;;589331;244;23130;-77
2022/05/14 08:28:31;;;;;;;6.62;3.10;;;32.80;54.90;31.90;100086;;;;580403;244;23064;-78
2022/05/14 08:31:00;;;;;;;5.95;3.40;;;32.80;54.80;32.10;100066;;;;580680;244;23068;-78
2022/05/14 08:33:26;;;;;;;4.50;2.85;;;33.10;53.90;31.40;100084;;;;576781;244;23080;-75
2022/05/14 08:35:59;;;;;;;5.78;2.85;;;32.70;51.90;29.80;100082;;;;579647;244;24126;-76
2022/05/14 08:38:23;;;;;;;5.50;3.00;;;31.50;52.70;28.40;100070;;;;579288;244;23115;-79
2022/05/14 08:40:54;;;;;;;6.80;3.40;;;30.10;54.20;27.10;100073;;;;579431;244;23082;-79
2022/05/14 08:43:24;;;;;;;9.07;3.97;;;28.80;56.10;25.80;100063;;;;579921;244;23120;-76
2022/05/14 08:45:55;;;;;;;6.77;3.30;;;27.40;57.30;24.90;100066;;;;579741;243;24069;-76
2022/05/14 08:48:39;;;;;;;6.97;3.23;;;26.20;59.40;25.00;100080;;;;582644;244;23147;-76
2022/05/14 08:51:13;;;;;;;5.97;3.20;;;25.80;61.40;24.30;100070;;;;579890;244;23077;-78
2022/05/14 08:53:40;;;;;;;13.43;3.30;;;25.30;62.10;23.50;100065;;;;579938;244;23120;-76
2022/05/14 08:56:20;;;;;;;9.77;3.77;;;24.50;64.40;22.50;100070;;;;580011;244;23130;-75
2022/05/14 08:58:53;;;;;;;6.00;2.70;;;23.60;66.30;21.70;100065;;;;579864;244;24118;-75
2022/05/14 09:01:22;;;;;;;7.20;3.50;;;22.70;69.10;21.00;100077;;;;579405;244;24107;-75
2022/05/14 09:03:49;;;;;;;6.77;2.50;;;21.90;71.50;20.50;100081;;;;579930;244;24047;-79
2022/05/14 09:06:18;;;;;;;7.23;2.83;;;20.70;76.00;19.90;100083;;;;589684;242;24118;-75
2022/05/14 09:08:50;;;;;;;8.63;3.20;;;20.70;76.00;19.40;100078;;;;578520;243;24068;-77
2022/05/14 09:11:26;;;;;;;6.67;3.33;;;19.70;80.50;18.90;100086;;;;581171;244;24055;-77
2022/05/14 09:13:57;;;;;;;9.67;3.07;;;19.60;80.40;18.60;100090;;;;589978;244;24051;-77
2022/05/14 09:16:31;;;;;;;8.33;2.97;;;18.90;86.40;18.30;100094;;;;580601;244;24105;-80
2022/05/14 09:18:59;;;;;;;9.57;3.17;;;18.90;86.40;18.10;100098;;;;580407;244;24098;-76
2022/05/14 09:21:30;;;;;;;6.20;2.80;;;18.40;90.60;17.90;100086;;;;584715;244;24054;-76
2022/05/14 09:24:02;;;;;;;9.23;2.73;;;18.40;90.60;19.10;100089;;;;580203;244;24159;-76
2022/05/14 09:26:35;;;;;;;6.87;3.30;;;19.20;92.40;22.00;100089;;;;579332;244;24129;-75
2022/05/14 09:29:30;;;;;;;7.57;2.97;;;21.80;90.10;25.20;100095;;;;579609;244;24079;-76
2022/05/14 09:32:04;;;;;;;6.07;2.67;;;25.00;77.70;28.80;100101;;;;579724;244;23122;-76
2022/05/14 09:34:32;;;;;;;6.93;2.87;;;28.80;65.70;31.40;100103;;;;579609;244;23077;-77
2022/05/14 09:37:16;;;;;;;6.82;3.08;;;31.70;56.90;33.10;100099;;;;579407;244;23119;-78
2022/05/14 09:40:05;;;;;;;5.65;2.90;;;36.00;47.90;35.10;100117;;;;579879;244;23084;-77
2022/05/14 09:42:46;;;;;;;6.20;3.20;;;35.80;47.80;35.50;100114;;;;579858;243;23112;-75
2022/05/14 09:45:29;;;;;;;5.70;2.83;;;36.90;44.90;35.50;100112;;;;579243;244;23077;-76
2022/05/14 09:48:28;;;;;;;9.45;3.50;;;37.10;43.00;35.30;100105;;;;587977;244;23080;-80
2022/05/14 09:50:50;;;;;;;6.40;2.87;;;37.00;42.90;33.40;100113;;;;580244;243;23164;-79
2022/05/14 09:53:28;;;;;;;10.05;3.62;;;35.50;43.10;31.10;100104;;;;579911;244;23085;-80
2022/05/14 09:56:10;;;;;;;10.90;3.55;;;33.40;45.10;28.80;100110;;;;580023;244;23114;-79
2022/05/14 09:58:56;;;;;;;5.65;2.70;;;31.10;48.10;27.00;100096;;;;577033;244;23075;-78
2022/05/14 10:01:46;;;;;;;7.95;3.75;;;28.80;50.60;25.60;100099;;;;579542;244;23095;-80
2022/05/14 10:04:31;;;;;;;9.00;3.50;;;27.10;54.10;24.40;100098;;;;579682;244;23082;-79
2022/05/14 10:07:17;;;;;;;7.73;3.00;;;25.60;57.00;23.50;100097;;;;580566;244;23109;-81
2022/05/14 10:10:04;;;;;;;8.57;3.17;;;24.40;59.10;23.20;100103;;;;580323;244;24036;-80
2022/05/14 10:12:37;;;;;;;10.73;2.83;;;23.80;62.00;24.70;100106;;;;580351;244;23083;-78
2022/05/14 10:15:26;;;;;;;6.33;2.80;;;24.80;61.10;26.20;100102;;;;579564;244;23069;-74
2022/05/14 10:18:31;;;;;;;6.57;2.80;;;26.40;58.00;26.90;100099;;;;580227;243;23079;-79
2022/05/14 10:21:08;;;;;;;6.50;2.97;;;27.50;56.00;26.60;100104;;;;578373;243;25221;-79
2022/05/14 10:26:46;;;;;;;9.77;2.90;;;25.80;56.30;24.50;100092;;;;580900;244;23109;-78
2022/05/14 10:29:36;;;;;;;4.80;2.57;;;25.80;56.30;23.20;100110;;;;579853;244;24058;-80
2022/05/14 10:32:11;;;;;;;9.67;3.37;;;24.40;58.50;22.10;100098;;;;580123;244;23069;-80
2022/05/14 10:35:17;;;;;;;9.53;3.73;;;23.20;61.70;21.20;100102;;;;580785;244;24065;-76
2022/05/14 10:37:52;;;;;;;7.17;3.07;;;22.20;65.10;21.10;100104;;;;588937;244;24130;-80
2022/05/14 10:40:38;;;;;;;8.93;2.67;;;21.80;68.10;21.00;100093;;;;579775;244;24149;-81
2022/05/14 10:43:35;;;;;;;5.67;2.43;;;21.60;66.60;20.90;100099;;;;579956;244;24070;-78
2022/05/14 10:46:01;;;;;;;8.37;2.47;;;21.50;67.60;20.50;100105;;;;588213;244;24071;-81
2022/05/14 10:48:47;;;;;;;7.23;2.70;;;21.10;68.10;20.30;100107;;;;579446;244;24055;-76
2022/05/14 10:51:21;;;;;;;7.63;2.57;;;20.90;69.70;20.10;100116;;;;577308;244;24089;-77
2022/05/14 10:53:49;;;;;;;8.67;3.07;;;20.20;70.00;19.60;100120;;;;580331;244;24070;-75
2022/05/14 10:56:17;;;;;;;9.87;3.40;;;20.20;70.00;19.30;100123;;;;580085;244;24076;-78
2022/05/14 10:58:57;;;;;;;10.40;3.12;;;19.90;72.00;19.40;100123;;;;574368;244;35148;-76
2022/05/14 11:01:52;;;;;;;9.00;3.13;;;19.90;73.30;19.40;100113;;;;579935;244;23073;-76
2022/05/14 11:04:46;;;;;;;9.20;2.73;;;19.90;73.20;19.50;100118;;;;577116;244;24136;-78
2022/05/14 11:07:09;;;;;;;6.47;2.67;;;20.00;72.60;19.60;100121;;;;578370;244;24133;-81
2022/05/14 11:09:46;;;;;;;6.83;2.60;;;20.10;72.60;19.60;100127;;;;578517;244;24052;-81
2022/05/14 11:12:21;;;;;;;6.10;2.47;;;20.00;72.20;19.40;100114;;;;579920;244;23071;-82
2022/05/14 11:14:52;;;;;;;8.23;2.30;;;20.00;72.20;19.20;100113;;;;576530;244;24048;-82
2022/05/14 11:17:29;;;;;;;8.23;2.27;;;19.80;72.50;18.90;100111;;;;579352;244;24055;-82
2022/05/14 11:20:03;;;;;;;7.67;2.73;;;19.50;73.50;18.60;100123;;;;579468;244;24059;-82
2022/05/14 11:22:40;;;;;;;7.40;2.57;;;19.30;74.50;18.60;100124;;;;576754;244;24086;-81
2022/05/14 11:25:17;;;;;;;7.77;2.00;;;19.20;73.50;18.70;100115;;;;579213;244;23084;-81
2022/05/14 11:28:00;;;;;;;4.97;2.40;;;19.20;72.70;18.80;100102;;;;576446;244;23087;-81
2022/05/14 11:30:39;;;;;;;3.10;1.60;;;19.30;73.10;18.90;100116;;;;580595;243;23078;-80
2022/05/14 11:33:28;;;;;;;10.60;1.93;;;19.40;72.70;19.00;100119;;;;580643;243;24050;-81
2022/05/14 11:36:11;;;;;;;4.63;2.17;;;19.50;73.00;18.80;100132;;;;580643;244;24082;-82
2022/05/14 11:38:39;;;;;;;8.33;2.40;;;19.40;72.70;18.40;100128;;;;580266;244;24048;-82
2022/05/14 11:41:31;;;;;;;16.77;3.53;;;19.10;74.10;18.00;100128;;;;580176;244;24062;-79
2022/05/14 11:44:02;;;;;;;7.23;2.50;;;18.80;75.70;17.90;100123;;;;580516;244;24121;-81
2022/05/14 11:46:42;;;;;;;5.33;1.70;;;18.60;76.80;18.20;100120;;;;580107;244;24059;-79
2022/05/14 11:49:24;;;;;;;6.67;2.20;;;18.70;77.10;18.50;100138;;;;580145;244;24038;-77